createdAt,value
2018-04-23T00:00:44.671Z,6.99
2018-04-23T00:01:44.609Z,6.99
2018-04-23T00:02:44.695Z,6.99
2018-04-23T00:03:44.672Z,6.99
2018-04-23T00:04:44.610Z,6.10
2018-04-23T00:05:44.604Z,6.10
2018-04-23T00:06:44.679Z,6.10
2018-04-23T00:07:44.608Z,6.10
2018-04-23T00:08:44.672Z,6.10
2018-04-23T00:09:44.608Z,6.10
2018-04-23T00:10:44.616Z,6.10
2018-04-23T00:11:44.609Z,6.10
2018-04-23T00:12:44.611Z,6.10
2018-04-23T00:13:44.678Z,6.10
2018-04-23T00:14:44.682Z,7.10
2018-04-23T00:15:44.683Z,7.10
2018-04-23T00:16:44.684Z,7.10
2018-04-23T00:17:44.685Z,7.10
2018-04-23T00:18:44.684Z,7.10
2018-04-23T00:19:44.614Z,7.10
2018-04-23T00:20:44.683Z,7.10
2018-04-23T00:21:44.613Z,7.10
2018-04-23T00:22:44.697Z,7.10
2018-04-23T00:23:44.620Z,7.10
2018-04-23T00:24:44.687Z,6.90
2018-04-23T00:25:44.727Z,6.90
2018-04-23T00:26:44.714Z,6.90
2018-04-23T00:27:44.707Z,6.90
2018-04-23T00:28:44.717Z,6.90
2018-04-23T00:29:44.612Z,6.90
2018-04-23T00:30:44.660Z,6.90
2018-04-23T00:31:44.727Z,6.90
2018-04-23T00:32:44.671Z,6.90
2018-04-23T00:33:44.690Z,6.90
2018-04-23T00:34:44.699Z,6.70
2018-04-23T00:35:44.596Z,6.70
2018-04-23T00:36:44.660Z,6.70
2018-04-23T00:37:44.717Z,6.70
2018-04-23T00:38:44.693Z,6.70
2018-04-23T00:39:44.695Z,6.70
2018-04-23T00:40:44.700Z,6.70
2018-04-23T00:41:44.623Z,6.70
2018-04-23T00:42:44.602Z,6.70
2018-04-23T00:43:44.621Z,6.70
2018-04-23T00:44:44.635Z,6.30
2018-04-23T00:45:44.730Z,6.30
2018-04-23T00:46:44.674Z,6.30
2018-04-23T00:47:44.701Z,6.30
2018-04-23T00:48:44.679Z,6.30
2018-04-23T00:49:44.713Z,6.30
2018-04-23T00:50:44.637Z,6.30
2018-04-23T00:51:44.643Z,6.30
2018-04-23T00:52:44.701Z,6.30
2018-04-23T00:53:44.747Z,6.30
2018-04-23T00:54:44.579Z,5.00
2018-04-23T00:55:44.696Z,5.00
2018-04-23T00:56:44.576Z,5.00
2018-04-23T00:57:44.667Z,5.00
2018-04-23T00:58:44.574Z,5.00
2018-04-23T00:59:44.705Z,5.00
2018-04-23T01:00:44.699Z,5.00
2018-04-23T01:01:44.632Z,5.00
2018-04-23T01:02:44.699Z,5.00
2018-04-23T01:03:44.651Z,5.00
2018-04-23T01:04:44.643Z,5.60
2018-04-23T01:05:44.716Z,5.60
2018-04-23T01:06:44.719Z,5.60
2018-04-23T01:07:44.723Z,5.60
2018-04-23T01:08:44.649Z,5.60
2018-04-23T01:09:44.646Z,5.60
2018-04-23T01:10:44.646Z,5.60
2018-04-23T01:11:44.684Z,5.60
2018-04-23T01:12:44.640Z,5.60
2018-04-23T01:13:44.718Z,5.60
2018-04-23T01:14:44.717Z,5.30
2018-04-23T01:15:44.715Z,5.30
2018-04-23T01:16:44.679Z,5.30
2018-04-23T01:17:44.758Z,5.30
2018-04-23T01:18:44.631Z,5.30
2018-04-23T01:19:44.659Z,5.30
2018-04-23T01:20:44.761Z,5.30
2018-04-23T01:21:44.725Z,5.30
2018-04-23T01:22:44.698Z,5.30
2018-04-23T01:23:44.689Z,5.30
2018-04-23T01:24:44.625Z,5.80
2018-04-23T01:25:44.628Z,5.80
2018-04-23T01:26:44.684Z,5.80
2018-04-23T01:27:44.690Z,5.80
2018-04-23T01:28:44.632Z,5.80
2018-04-23T01:29:44.690Z,5.80
2018-04-23T01:30:44.727Z,5.80
2018-04-23T01:31:44.731Z,5.80
2018-04-23T01:32:44.649Z,5.80
2018-04-23T01:33:44.772Z,5.80
2018-04-23T01:34:44.727Z,7.30
2018-04-23T01:35:44.768Z,7.30
2018-04-23T01:36:44.649Z,7.30
2018-04-23T01:37:44.743Z,7.30
2018-04-23T01:38:44.692Z,7.30
2018-04-23T01:39:44.655Z,7.30
2018-04-23T01:40:44.708Z,7.30
2018-04-23T01:41:44.757Z,7.30
2018-04-23T01:42:44.772Z,7.30
2018-04-23T01:43:44.708Z,7.30
2018-04-23T01:44:44.673Z,7.50
2018-04-23T01:45:44.736Z,7.50
2018-04-23T01:46:44.714Z,7.50
2018-04-23T01:47:44.738Z,7.50
2018-04-23T01:48:44.768Z,7.50
2018-04-23T01:49:44.704Z,7.50
2018-04-23T01:50:44.708Z,7.50
2018-04-23T01:51:44.712Z,7.50
2018-04-23T01:52:44.709Z,7.50
2018-04-23T01:53:44.772Z,7.50
2018-04-23T01:54:44.732Z,7.70
2018-04-23T01:55:44.773Z,7.70
2018-04-23T01:56:44.702Z,7.70
2018-04-23T01:57:44.670Z,7.70
2018-04-23T01:58:44.757Z,7.70
2018-04-23T01:59:44.708Z,7.70
2018-04-23T02:00:44.774Z,7.70
2018-04-23T02:01:44.651Z,7.70
2018-04-23T02:02:44.652Z,7.70
2018-04-23T02:03:44.666Z,7.70
2018-04-23T02:04:44.734Z,8.10
2018-04-23T02:05:44.724Z,8.10
2018-04-23T02:06:44.624Z,8.10
2018-04-23T02:07:44.619Z,8.10
2018-04-23T02:08:44.648Z,8.10
2018-04-23T02:09:44.646Z,8.10
2018-04-23T02:10:44.737Z,8.10
2018-04-23T02:11:44.658Z,8.10
2018-04-23T02:12:44.659Z,8.10
2018-04-23T02:13:44.739Z,8.10
2018-04-23T02:14:44.751Z,8.20
2018-04-23T02:15:44.679Z,8.20
2018-04-23T02:16:44.755Z,8.20
2018-04-23T02:17:44.688Z,8.20
2018-04-23T02:18:44.757Z,8.20
2018-04-23T02:19:44.678Z,8.20
2018-04-23T02:20:44.645Z,8.20
2018-04-23T02:21:44.685Z,8.20
2018-04-23T02:22:44.685Z,8.20
2018-04-23T02:23:44.761Z,8.20
2018-04-23T02:24:44.699Z,8.10
2018-04-23T02:25:44.666Z,8.10
2018-04-23T02:26:44.684Z,8.10
2018-04-23T02:27:44.754Z,8.10
2018-04-23T02:28:44.730Z,8.10
2018-04-23T02:29:44.763Z,8.10
2018-04-23T02:30:44.705Z,8.10
2018-04-23T02:31:44.743Z,8.10
2018-04-23T02:32:44.845Z,8.10
2018-04-23T02:33:44.729Z,8.10
2018-04-23T02:34:44.773Z,8.50
2018-04-23T02:35:44.830Z,8.50
2018-04-23T02:36:44.769Z,8.50
2018-04-23T02:37:44.740Z,8.50
2018-04-23T02:38:44.688Z,8.50
2018-04-23T02:39:44.741Z,8.50
2018-04-23T02:40:44.771Z,8.50
2018-04-23T02:41:44.712Z,8.50
2018-04-23T02:42:44.797Z,8.50
2018-04-23T02:43:44.711Z,8.50
2018-04-23T02:44:44.754Z,11.40
2018-04-23T02:45:44.777Z,11.40
2018-04-23T02:46:44.755Z,11.40
2018-04-23T02:47:44.800Z,11.40
2018-04-23T02:48:44.713Z,11.40
2018-04-23T02:49:44.808Z,11.40
2018-04-23T02:50:44.705Z,11.40
2018-04-23T02:51:44.758Z,11.40
2018-04-23T02:52:44.792Z,11.40
2018-04-23T02:53:44.781Z,11.40
2018-04-23T02:54:44.779Z,11.20
2018-04-23T02:55:44.792Z,11.20
2018-04-23T02:56:44.823Z,11.20
2018-04-23T02:57:44.773Z,11.20
2018-04-23T02:58:44.784Z,11.20
2018-04-23T02:59:44.809Z,11.20
2018-04-23T03:00:44.812Z,11.20
2018-04-23T03:01:44.813Z,11.20
2018-04-23T03:02:44.731Z,11.20
2018-04-23T03:03:44.766Z,11.20
2018-04-23T03:04:44.821Z,9.50
2018-04-23T03:05:44.752Z,9.50
2018-04-23T03:06:44.759Z,9.50
2018-04-23T03:07:44.731Z,9.50
2018-04-23T03:08:44.811Z,9.50
2018-04-23T03:09:44.693Z,9.50
2018-04-23T03:10:44.796Z,9.50
2018-04-23T03:11:44.815Z,9.50
2018-04-23T03:12:44.757Z,9.50
2018-04-23T03:13:44.815Z,9.50
2018-04-23T03:14:44.758Z,8.99
2018-04-23T03:15:44.711Z,8.99
2018-04-23T03:16:44.757Z,8.99
2018-04-23T03:17:44.766Z,8.99
2018-04-23T03:18:44.792Z,8.99
2018-04-23T03:19:44.756Z,8.99
2018-04-23T03:20:44.838Z,8.99
2018-04-23T03:21:44.839Z,8.99
2018-04-23T03:22:44.823Z,8.99
2018-04-23T03:23:44.804Z,8.99
2018-04-23T03:24:44.703Z,7.50
2018-04-23T03:25:44.828Z,7.50
2018-04-23T03:26:44.815Z,7.50
2018-04-23T03:27:44.780Z,7.50
2018-04-23T03:28:44.724Z,7.50
2018-04-23T03:29:44.851Z,7.50
2018-04-23T03:30:44.823Z,7.50
2018-04-23T03:31:44.811Z,7.50
2018-04-23T03:32:44.834Z,7.50
2018-04-23T03:33:44.758Z,7.50
2018-04-23T03:34:44.828Z,7.10
2018-04-23T03:35:44.768Z,7.10
2018-04-23T03:36:44.731Z,7.10
2018-04-23T03:37:44.785Z,7.10
2018-04-23T03:38:44.817Z,7.10
2018-04-23T03:39:44.767Z,7.10
2018-04-23T03:40:44.808Z,7.10
2018-04-23T03:41:44.842Z,7.10
2018-04-23T03:42:44.809Z,7.10
2018-04-23T03:43:44.787Z,7.10
2018-04-23T03:44:44.815Z,8.70
2018-04-23T03:45:44.844Z,8.70
2018-04-23T03:46:44.733Z,8.70
2018-04-23T03:47:44.756Z,8.70
2018-04-23T03:48:44.788Z,8.70
2018-04-23T03:49:44.787Z,8.70
2018-04-23T03:50:44.718Z,8.70
2018-04-23T03:51:44.820Z,8.70
2018-04-23T03:52:44.843Z,8.70
2018-04-23T03:53:44.821Z,8.70
2018-04-23T03:54:44.820Z,8.70
2018-04-23T03:55:44.754Z,8.70
2018-04-23T03:56:44.751Z,8.70
2018-04-23T03:57:44.809Z,8.70
2018-04-23T03:58:44.827Z,8.70
2018-04-23T03:59:44.752Z,8.70
2018-04-23T04:00:44.825Z,8.70
2018-04-23T04:01:44.754Z,8.70
2018-04-23T04:02:44.752Z,8.70
2018-04-23T04:03:44.834Z,8.70
2018-04-23T04:04:44.833Z,9.10
2018-04-23T04:05:44.797Z,9.10
2018-04-23T04:06:44.731Z,9.10
2018-04-23T04:07:44.762Z,9.10
2018-04-23T04:08:44.766Z,9.10
2018-04-23T04:09:44.752Z,9.10
2018-04-23T04:10:44.838Z,9.10
2018-04-23T04:11:44.736Z,9.10
2018-04-23T04:12:44.831Z,9.10
2018-04-23T04:13:44.827Z,9.10
2018-04-23T04:14:44.748Z,9.20
2018-04-23T04:15:44.858Z,9.20
2018-04-23T04:16:44.799Z,9.20
2018-04-23T04:17:44.838Z,9.20
2018-04-23T04:18:44.836Z,9.20
2018-04-23T04:19:44.874Z,9.20
2018-04-23T04:20:44.750Z,9.20
2018-04-23T04:21:44.760Z,9.20
2018-04-23T04:22:44.806Z,9.20
2018-04-23T04:23:44.861Z,9.20
2018-04-23T04:24:44.929Z,7.90
2018-04-23T04:25:44.879Z,7.90
2018-04-23T04:26:44.872Z,7.90
2018-04-23T04:27:44.867Z,7.90
2018-04-23T04:28:44.840Z,7.90
2018-04-23T04:29:44.799Z,7.90
2018-04-23T04:30:44.784Z,7.90
2018-04-23T04:31:44.874Z,7.90
2018-04-23T04:32:44.856Z,7.90
2018-04-23T04:33:44.843Z,7.90
2018-04-23T04:34:44.831Z,8.00
2018-04-23T04:35:44.794Z,8.00
2018-04-23T04:36:44.720Z,8.00
2018-04-23T04:37:44.707Z,8.00
2018-04-23T04:38:44.801Z,8.00
2018-04-23T04:39:44.735Z,8.00
2018-04-23T04:40:44.802Z,8.00
2018-04-23T04:41:44.711Z,8.00
2018-04-23T04:42:44.719Z,8.00
2018-04-23T04:43:44.709Z,8.00
2018-04-23T04:44:44.801Z,8.00
2018-04-23T04:45:44.790Z,9.90
2018-04-23T04:46:44.845Z,9.90
2018-04-23T04:47:44.741Z,9.90
2018-04-23T04:48:44.845Z,9.90
2018-04-23T04:49:44.756Z,9.90
2018-04-23T04:50:44.799Z,9.90
2018-04-23T04:51:44.848Z,9.90
2018-04-23T04:52:44.812Z,9.90
2018-04-23T04:53:44.726Z,9.90
2018-04-23T04:54:44.850Z,9.90
2018-04-23T04:55:44.763Z,10.20
2018-04-23T04:56:44.843Z,10.20
2018-04-23T04:57:44.807Z,10.20
2018-04-23T04:58:44.820Z,10.20
2018-04-23T04:59:44.850Z,10.20
2018-04-23T05:00:44.807Z,10.20
2018-04-23T05:01:44.823Z,10.20
2018-04-23T05:02:44.789Z,10.20
2018-04-23T05:03:44.736Z,10.20
2018-04-23T05:04:44.862Z,10.20
2018-04-23T05:05:44.865Z,11.90
2018-04-23T05:06:44.904Z,11.90
2018-04-23T05:07:44.829Z,11.90
2018-04-23T05:08:44.792Z,11.90
2018-04-23T05:09:44.774Z,11.90
2018-04-23T05:10:44.808Z,11.90
2018-04-23T05:11:44.906Z,11.90
2018-04-23T05:12:44.904Z,11.90
2018-04-23T05:13:44.772Z,11.90
2018-04-23T05:14:44.792Z,11.90
2018-04-23T05:15:44.775Z,11.00
2018-04-23T05:16:44.777Z,11.00
2018-04-23T05:17:44.866Z,11.00
2018-04-23T05:18:44.746Z,11.00
2018-04-23T05:19:44.789Z,11.00
2018-04-23T05:20:44.800Z,11.00
2018-04-23T05:21:44.952Z,11.00
2018-04-23T05:22:44.837Z,11.00
2018-04-23T05:23:44.917Z,11.00
2018-04-23T05:24:44.781Z,11.00
2018-04-23T05:25:44.862Z,11.30
2018-04-23T05:26:44.860Z,11.30
2018-04-23T05:27:44.904Z,11.30
2018-04-23T05:28:44.877Z,11.30
2018-04-23T05:29:44.816Z,11.30
2018-04-23T05:30:44.877Z,11.30
2018-04-23T05:31:44.786Z,11.30
2018-04-23T05:32:44.790Z,11.30
2018-04-23T05:33:44.800Z,11.30
2018-04-23T05:34:44.889Z,11.30
2018-04-23T05:35:44.802Z,11.40
2018-04-23T05:36:44.802Z,11.40
2018-04-23T05:37:44.886Z,11.40
2018-04-23T05:38:44.880Z,11.40
2018-04-23T05:39:44.811Z,11.40
2018-04-23T05:40:44.873Z,11.40
2018-04-23T05:41:44.883Z,11.40
2018-04-23T05:42:44.791Z,11.40
2018-04-23T05:43:44.885Z,11.40
2018-04-23T05:44:44.806Z,11.40
2018-04-23T05:45:44.925Z,12.40
2018-04-23T05:46:44.893Z,12.40
2018-04-23T05:47:44.819Z,12.40
2018-04-23T05:48:44.892Z,12.40
2018-04-23T05:49:44.895Z,12.40
2018-04-23T05:50:44.827Z,12.40
2018-04-23T05:51:44.899Z,12.40
2018-04-23T05:52:44.890Z,12.40
2018-04-23T05:53:44.827Z,12.40
2018-04-23T05:54:44.911Z,12.40
2018-04-23T05:55:44.913Z,11.90
2018-04-23T05:56:44.935Z,11.90
2018-04-23T05:57:44.832Z,11.90
2018-04-23T05:58:44.901Z,11.90
2018-04-23T05:59:44.920Z,11.90
2018-04-23T06:00:44.925Z,11.90
2018-04-23T06:01:44.875Z,11.90
2018-04-23T06:02:44.826Z,11.90
2018-04-23T06:03:44.954Z,11.90
2018-04-23T06:04:44.901Z,11.90
2018-04-23T06:05:44.792Z,13.90
2018-04-23T06:06:44.890Z,13.90
2018-04-23T06:07:44.888Z,13.90
2018-04-23T06:08:44.826Z,13.90
2018-04-23T06:09:44.896Z,13.90
2018-04-23T06:10:44.896Z,13.90
2018-04-23T06:11:44.872Z,13.90
2018-04-23T06:12:44.784Z,13.90
2018-04-23T06:13:44.899Z,13.90
2018-04-23T06:14:44.901Z,13.90
2018-04-23T06:15:44.829Z,14.80
2018-04-23T06:16:44.946Z,14.80
2018-04-23T06:17:44.846Z,14.80
2018-04-23T06:18:44.826Z,14.80
2018-04-23T06:19:44.917Z,14.80
2018-04-23T06:20:44.929Z,14.80
2018-04-23T06:21:44.815Z,14.80
2018-04-23T06:22:44.836Z,14.80
2018-04-23T06:23:44.975Z,14.80
2018-04-23T06:24:44.917Z,14.80
2018-04-23T06:25:44.915Z,12.20
2018-04-23T06:26:44.843Z,12.20
2018-04-23T06:27:44.916Z,12.20
2018-04-23T06:28:44.843Z,12.20
2018-04-23T06:29:44.845Z,12.20
2018-04-23T06:30:44.918Z,12.20
2018-04-23T06:31:44.848Z,12.20
2018-04-23T06:32:44.848Z,12.20
2018-04-23T06:33:44.892Z,12.20
2018-04-23T06:34:44.850Z,12.20
2018-04-23T06:35:44.843Z,13.90
2018-04-23T06:36:44.883Z,13.90
2018-04-23T06:37:44.893Z,13.90
2018-04-23T06:38:44.956Z,13.90
2018-04-23T06:39:44.917Z,13.90
2018-04-23T06:40:44.943Z,13.90
2018-04-23T06:41:44.951Z,13.90
2018-04-23T06:42:44.829Z,13.90
2018-04-23T06:43:44.896Z,13.90
2018-04-23T06:44:44.920Z,13.90
2018-04-23T06:45:44.896Z,12.50
2018-04-23T06:46:44.906Z,12.50
2018-04-23T06:47:44.953Z,12.50
2018-04-23T06:48:44.845Z,12.50
2018-04-23T06:49:44.934Z,12.50
2018-04-23T06:50:44.835Z,12.50
2018-04-23T06:51:44.928Z,12.50
2018-04-23T06:52:44.897Z,12.50
2018-04-23T06:53:44.897Z,12.50
2018-04-23T06:54:44.865Z,12.50
2018-04-23T06:55:44.961Z,26.30
2018-04-23T06:56:44.903Z,26.30
2018-04-23T06:57:44.968Z,26.30
2018-04-23T06:58:44.907Z,26.30
2018-04-23T06:59:44.912Z,26.30
2018-04-23T07:00:44.840Z,26.30
2018-04-23T07:01:44.991Z,26.30
2018-04-23T07:02:44.907Z,26.30
2018-04-23T07:03:44.960Z,26.30
2018-04-23T07:04:44.930Z,26.30
2018-04-23T07:05:44.913Z,14.40
2018-04-23T07:06:44.901Z,14.40
2018-04-23T07:07:44.939Z,14.40
2018-04-23T07:08:44.965Z,14.40
2018-04-23T07:09:44.979Z,14.40
2018-04-23T07:10:44.943Z,14.40
2018-04-23T07:11:44.977Z,14.40
2018-04-23T07:12:44.846Z,14.40
2018-04-23T07:13:45.000Z,14.40
2018-04-23T07:14:44.923Z,14.40
2018-04-23T07:15:44.942Z,12.00
2018-04-23T07:16:44.851Z,12.00
2018-04-23T07:17:44.904Z,12.00
2018-04-23T07:18:44.852Z,12.00
2018-04-23T07:19:44.937Z,12.00
2018-04-23T07:20:44.866Z,12.00
2018-04-23T07:21:44.939Z,12.00
2018-04-23T07:22:44.942Z,12.00
2018-04-23T07:23:44.865Z,12.00
2018-04-23T07:24:44.876Z,12.00
2018-04-23T07:25:44.874Z,13.50
2018-04-23T07:26:44.857Z,13.50
2018-04-23T07:27:44.946Z,13.50
2018-04-23T07:28:44.945Z,13.50
2018-04-23T07:29:44.860Z,13.50
2018-04-23T07:30:44.919Z,13.50
2018-04-23T07:31:44.901Z,13.50
2018-04-23T07:32:44.948Z,13.50
2018-04-23T07:33:44.970Z,13.50
2018-04-23T07:34:44.897Z,13.50
2018-04-23T07:35:44.980Z,12.40
2018-04-23T07:36:44.920Z,12.40
2018-04-23T07:37:44.957Z,12.40
2018-04-23T07:38:44.981Z,12.40
2018-04-23T07:39:44.964Z,12.40
2018-04-23T07:40:44.999Z,12.40
2018-04-23T07:41:44.988Z,12.40
2018-04-23T07:42:44.984Z,12.40
2018-04-23T07:43:44.961Z,12.40
2018-04-23T07:44:45.031Z,12.40
2018-04-23T07:45:44.989Z,11.40
2018-04-23T07:46:44.888Z,11.40
2018-04-23T07:47:44.965Z,11.40
2018-04-23T07:48:44.951Z,11.40
2018-04-23T07:49:44.890Z,11.40
2018-04-23T07:50:44.963Z,11.40
2018-04-23T07:51:45.042Z,11.40
2018-04-23T07:52:44.975Z,11.40
2018-04-23T07:53:45.035Z,11.40
2018-04-23T07:54:44.872Z,11.40
2018-04-23T07:55:44.968Z,10.50
2018-04-23T07:56:45.001Z,10.50
2018-04-23T07:57:45.007Z,10.50
2018-04-23T07:58:44.999Z,10.50
2018-04-23T07:59:44.881Z,10.50
2018-04-23T08:00:44.936Z,10.50
2018-04-23T08:01:44.996Z,10.50
2018-04-23T08:02:44.975Z,10.50
2018-04-23T08:03:45.011Z,10.50
2018-04-23T08:04:44.954Z,10.50
2018-04-23T08:05:45.007Z,10.90
2018-04-23T08:06:44.944Z,10.90
2018-04-23T08:07:44.899Z,10.90
2018-04-23T08:08:44.947Z,10.90
2018-04-23T08:09:45.015Z,10.90
2018-04-23T08:10:45.019Z,10.90
2018-04-23T08:11:45.012Z,10.90
2018-04-23T08:12:44.979Z,10.90
2018-04-23T08:13:44.947Z,10.90
2018-04-23T08:14:44.957Z,10.90
2018-04-23T08:15:44.987Z,15.70
2018-04-23T08:16:44.961Z,15.70
2018-04-23T08:17:44.908Z,15.70
2018-04-23T08:18:44.951Z,15.70
2018-04-23T08:19:45.065Z,15.70
2018-04-23T08:20:44.988Z,15.70
2018-04-23T08:21:44.947Z,15.70
2018-04-23T08:22:45.015Z,15.70
2018-04-23T08:23:44.918Z,15.70
2018-04-23T08:24:45.011Z,15.70
2018-04-23T08:25:45.011Z,14.20
2018-04-23T08:26:45.014Z,14.20
2018-04-23T08:27:44.984Z,14.20
2018-04-23T08:28:45.012Z,14.20
2018-04-23T08:29:45.028Z,14.20
2018-04-23T08:30:44.988Z,14.20
2018-04-23T08:31:45.078Z,14.20
2018-04-23T08:32:44.898Z,14.20
2018-04-23T08:33:44.997Z,14.20
2018-04-23T08:34:44.912Z,14.20
2018-04-23T08:35:44.990Z,13.00
2018-04-23T08:36:44.920Z,13.00
2018-04-23T08:37:44.900Z,13.00
2018-04-23T08:38:44.956Z,13.00
2018-04-23T08:39:44.985Z,13.00
2018-04-23T08:40:44.918Z,13.00
2018-04-23T08:41:44.870Z,13.00
2018-04-23T08:42:44.916Z,13.00
2018-04-23T08:43:44.933Z,13.00
2018-04-23T08:44:44.992Z,13.00
2018-04-23T08:45:44.935Z,12.50
2018-04-23T08:46:45.006Z,12.50
2018-04-23T08:47:44.931Z,12.50
2018-04-23T08:48:45.008Z,12.50
2018-04-23T08:49:45.004Z,12.50
2018-04-23T08:50:44.951Z,12.50
2018-04-23T08:51:44.948Z,12.50
2018-04-23T08:52:44.940Z,12.50
2018-04-23T08:53:44.937Z,12.50
2018-04-23T08:54:44.942Z,12.50
2018-04-23T08:55:45.116Z,12.90
2018-04-23T08:56:45.068Z,12.90
2018-04-23T08:57:45.005Z,12.90
2018-04-23T08:58:44.931Z,12.90
2018-04-23T08:59:45.038Z,12.90
2018-04-23T09:00:44.951Z,12.90
2018-04-23T09:01:45.012Z,12.90
2018-04-23T09:02:45.041Z,12.90
2018-04-23T09:03:45.036Z,12.90
2018-04-23T09:04:45.016Z,12.90
2018-04-23T09:05:44.973Z,11.80
2018-04-23T09:06:45.051Z,11.80
2018-04-23T09:07:45.051Z,11.80
2018-04-23T09:08:45.015Z,11.80
2018-04-23T09:09:45.028Z,11.80
2018-04-23T09:10:44.941Z,11.80
2018-04-23T09:11:44.985Z,11.80
2018-04-23T09:12:44.990Z,11.80
2018-04-23T09:13:45.017Z,11.80
2018-04-23T09:14:45.038Z,11.80
2018-04-23T09:15:44.951Z,13.00
2018-04-23T09:16:44.950Z,13.00
2018-04-23T09:17:45.028Z,13.00
2018-04-23T09:18:44.889Z,13.00
2018-04-23T09:19:44.962Z,13.00
2018-04-23T09:20:44.921Z,13.00
2018-04-23T09:21:44.964Z,13.00
2018-04-23T09:22:44.956Z,13.00
2018-04-23T09:23:44.930Z,13.00
2018-04-23T09:24:44.945Z,13.00
2018-04-23T09:25:45.050Z,15.60
2018-04-23T09:26:45.063Z,15.60
2018-04-23T09:27:45.025Z,15.60
2018-04-23T09:28:45.057Z,15.60
2018-04-23T09:29:45.085Z,15.60
2018-04-23T09:30:45.010Z,15.60
2018-04-23T09:31:45.025Z,15.60
2018-04-23T09:32:44.966Z,15.60
2018-04-23T09:33:45.058Z,15.60
2018-04-23T09:34:45.060Z,15.60
2018-04-23T09:35:44.941Z,16.80
2018-04-23T09:36:45.075Z,16.80
2018-04-23T09:37:45.073Z,16.80
2018-04-23T09:38:44.952Z,16.80
2018-04-23T09:40:45.074Z,16.80
2018-04-23T09:41:44.942Z,16.80
2018-04-23T09:42:45.077Z,16.80
2018-04-23T09:43:45.004Z,16.80
2018-04-23T09:44:45.039Z,16.80
2018-04-23T09:45:45.106Z,15.40
2018-04-23T09:46:45.037Z,15.40
2018-04-23T09:47:45.038Z,15.40
2018-04-23T09:48:45.041Z,15.40
2018-04-23T09:49:44.962Z,15.40
2018-04-23T09:50:45.008Z,15.40
2018-04-23T09:51:45.070Z,15.40
2018-04-23T09:52:45.010Z,15.40
2018-04-23T09:53:45.051Z,15.40
2018-04-23T09:54:45.024Z,15.40
2018-04-23T09:55:44.979Z,16.30
2018-04-23T09:56:45.045Z,16.30
2018-04-23T09:57:45.047Z,16.30
2018-04-23T09:58:44.981Z,16.30
2018-04-23T09:59:44.987Z,16.30
2018-04-23T10:00:44.979Z,16.30
2018-04-23T10:01:45.018Z,16.30
2018-04-23T10:02:45.060Z,16.30
2018-04-23T10:03:44.989Z,16.30
2018-04-23T10:04:45.055Z,16.30
2018-04-23T10:05:45.019Z,16.80
2018-04-23T10:06:44.992Z,16.80
2018-04-23T10:07:45.085Z,16.80
2018-04-23T10:08:44.992Z,16.80
2018-04-23T10:09:45.059Z,16.80
2018-04-23T10:10:44.958Z,16.80
2018-04-23T10:11:44.991Z,16.80
2018-04-23T10:12:44.993Z,16.80
2018-04-23T10:13:45.096Z,16.80
2018-04-23T10:14:45.066Z,16.80
2018-04-23T10:15:45.091Z,16.10
2018-04-23T10:16:45.093Z,16.10
2018-04-23T10:17:45.064Z,16.10
2018-04-23T10:18:45.042Z,16.10
2018-04-23T10:19:44.966Z,16.10
2018-04-23T10:20:45.022Z,16.10
2018-04-23T10:21:45.026Z,16.10
2018-04-23T10:22:45.078Z,16.10
2018-04-23T10:23:45.140Z,16.10
2018-04-23T10:24:45.036Z,16.10
2018-04-23T10:25:45.040Z,13.99
2018-04-23T10:26:44.967Z,13.99
2018-04-23T10:27:44.983Z,13.99
2018-04-23T10:28:44.987Z,13.99
2018-04-23T10:29:45.090Z,13.99
2018-04-23T10:30:45.101Z,13.99
2018-04-23T10:31:45.074Z,13.99
2018-04-23T10:32:45.110Z,13.99
2018-04-23T10:33:45.043Z,13.99
2018-04-23T10:34:44.991Z,13.99
2018-04-23T10:35:45.036Z,9.60
2018-04-23T10:36:45.078Z,9.60
2018-04-23T10:37:45.075Z,9.60
2018-04-23T10:38:45.073Z,9.60
2018-04-23T10:39:44.993Z,9.60
2018-04-23T10:40:44.991Z,9.60
2018-04-23T10:41:44.981Z,9.60
2018-04-23T10:42:45.059Z,9.60
2018-04-23T10:43:44.997Z,9.60
2018-04-23T10:44:45.079Z,9.60
2018-04-23T10:45:45.029Z,9.00
2018-04-23T10:46:45.077Z,9.00
2018-04-23T10:47:44.986Z,9.00
2018-04-23T10:48:45.013Z,9.00
2018-04-23T10:49:45.072Z,9.00
2018-04-23T10:50:45.015Z,9.00
2018-04-23T10:51:45.033Z,9.00
2018-04-23T10:52:45.065Z,9.00
2018-04-23T10:53:44.953Z,9.00
2018-04-23T10:54:45.031Z,9.00
2018-04-23T10:55:45.099Z,9.80
2018-04-23T10:56:44.985Z,9.80
2018-04-23T10:57:45.062Z,9.80
2018-04-23T10:58:45.124Z,9.80
2018-04-23T10:59:45.105Z,9.80
2018-04-23T11:00:45.120Z,9.80
2018-04-23T11:01:45.045Z,9.80
2018-04-23T11:02:45.065Z,9.80
2018-04-23T11:03:45.027Z,9.80
2018-04-23T11:04:45.116Z,9.80
2018-04-23T11:05:45.107Z,9.20
2018-04-23T11:06:45.026Z,9.20
2018-04-23T11:07:45.088Z,9.20
2018-04-23T11:08:45.023Z,9.20
2018-04-23T11:09:45.123Z,9.20
2018-04-23T11:10:45.034Z,9.20
2018-04-23T11:11:45.094Z,9.20
2018-04-23T11:12:45.025Z,9.20
2018-04-23T11:13:45.111Z,9.20
2018-04-23T11:14:45.096Z,9.20
2018-04-23T11:15:45.091Z,9.20
2018-04-23T11:16:45.024Z,9.00
2018-04-23T11:17:45.094Z,9.00
2018-04-23T11:18:45.036Z,9.00
2018-04-23T11:19:44.985Z,9.00
2018-04-23T11:20:45.031Z,9.00
2018-04-23T11:21:45.006Z,9.00
2018-04-23T11:22:45.053Z,9.00
2018-04-23T11:23:45.093Z,9.00
2018-04-23T11:24:45.149Z,9.00
2018-04-23T11:25:45.093Z,9.00
2018-04-23T11:26:45.008Z,7.30
2018-04-23T11:27:45.007Z,7.30
2018-04-23T11:28:45.138Z,7.30
2018-04-23T11:29:45.136Z,7.30
2018-04-23T11:30:45.146Z,7.30
2018-04-23T11:31:45.140Z,7.30
2018-04-23T11:32:45.123Z,7.30
2018-04-23T11:33:45.126Z,7.30
2018-04-23T11:34:45.108Z,7.30
2018-04-23T11:35:45.136Z,7.30
2018-04-23T11:36:45.143Z,7.10
2018-04-23T11:37:45.078Z,7.10
2018-04-23T11:38:45.073Z,7.10
2018-04-23T11:39:45.134Z,7.10
2018-04-23T11:40:45.149Z,7.10
2018-04-23T11:41:45.149Z,7.10
2018-04-23T11:42:45.183Z,7.10
2018-04-23T11:43:45.088Z,7.10
2018-04-23T11:44:45.082Z,7.10
2018-04-23T11:45:45.079Z,7.10
2018-04-23T11:46:45.147Z,5.80
2018-04-23T11:47:45.140Z,5.80
2018-04-23T11:48:45.160Z,5.80
2018-04-23T11:49:45.152Z,5.80
2018-04-23T11:50:45.076Z,5.80
2018-04-23T11:51:45.076Z,5.80
2018-04-23T11:52:45.015Z,5.80
2018-04-23T11:53:45.096Z,5.80
2018-04-23T11:54:45.153Z,5.80
2018-04-23T11:55:45.149Z,5.80
2018-04-23T11:56:45.027Z,5.20
2018-04-23T11:57:45.120Z,5.20
2018-04-23T11:58:45.150Z,5.20
2018-04-23T11:59:45.028Z,5.20
2018-04-23T12:00:45.154Z,5.20
2018-04-23T12:01:45.043Z,5.20
2018-04-23T12:02:45.090Z,5.20
2018-04-23T12:03:45.037Z,5.20
2018-04-23T12:04:45.101Z,5.20
2018-04-23T12:05:45.151Z,5.20
2018-04-23T12:06:45.049Z,5.90
2018-04-23T12:07:45.147Z,5.90
2018-04-23T12:08:45.101Z,5.90
2018-04-23T12:09:45.143Z,5.90
2018-04-23T12:10:45.037Z,5.90
2018-04-23T12:11:45.035Z,5.90
2018-04-23T12:12:45.103Z,5.90
2018-04-23T12:13:45.107Z,5.90
2018-04-23T12:14:45.035Z,5.90
2018-04-23T12:15:45.073Z,5.90
2018-04-23T12:16:45.117Z,6.00
2018-04-23T12:17:45.126Z,6.00
2018-04-23T12:18:45.133Z,6.00
2018-04-23T12:19:45.021Z,6.00
2018-04-23T12:20:45.117Z,6.00
2018-04-23T12:21:45.156Z,6.00
2018-04-23T12:22:45.135Z,6.00
2018-04-23T12:23:45.086Z,6.00
2018-04-23T12:24:45.067Z,6.00
2018-04-23T12:25:45.004Z,6.00
2018-04-23T12:26:45.145Z,7.40
2018-04-23T12:27:45.141Z,7.40
2018-04-23T12:28:45.183Z,7.40
2018-04-23T12:29:45.122Z,7.40
2018-04-23T12:30:45.161Z,7.40
2018-04-23T12:31:45.114Z,7.40
2018-04-23T12:32:45.043Z,7.40
2018-04-23T12:33:45.105Z,7.40
2018-04-23T12:34:45.113Z,7.40
2018-04-23T12:35:45.159Z,7.40
2018-04-23T12:36:45.160Z,6.50
2018-04-23T12:37:45.111Z,6.50
2018-04-23T12:38:45.125Z,6.50
2018-04-23T12:39:45.107Z,6.50
2018-04-23T12:40:45.188Z,6.50
2018-04-23T12:41:45.178Z,6.50
2018-04-23T12:42:45.169Z,6.50
2018-04-23T12:43:45.149Z,6.50
2018-04-23T12:44:45.055Z,6.50
2018-04-23T12:45:45.114Z,6.50
2018-04-23T12:46:45.125Z,8.30
2018-04-23T12:47:45.173Z,8.30
2018-04-23T12:48:45.183Z,8.30
2018-04-23T12:49:45.181Z,8.30
2018-04-23T12:50:45.138Z,8.30
2018-04-23T12:51:45.183Z,8.30
2018-04-23T12:53:45.175Z,8.30
2018-04-23T12:54:45.138Z,8.30
2018-04-23T12:55:45.175Z,8.30
2018-04-23T12:56:45.193Z,9.90
2018-04-23T12:57:45.101Z,9.90
2018-04-23T12:58:45.186Z,9.90
2018-04-23T12:59:45.117Z,9.90
2018-04-23T13:00:45.186Z,9.90
2018-04-23T13:01:45.136Z,9.90
2018-04-23T13:02:45.106Z,9.90
2018-04-23T13:03:45.167Z,9.90
2018-04-23T13:04:45.134Z,9.90
2018-04-23T13:05:45.237Z,9.90
2018-04-23T13:06:45.209Z,10.30
2018-04-23T13:07:45.140Z,10.30
2018-04-23T13:08:45.129Z,10.30